sensor_id;sensor_type;location;lat;lon;timestamp;P1;durP1;ratioP1;P2;durP2;ratioP2
13202;SDS011;6666;51.626;7.530;2022-12-29T00:02:04;1.25;;;0.77;;
13202;SDS011;6666;51.626;7.530;2022-12-29T00:04:33;1.70;;;1.00;;
13202;SDS011;6666;51.626;7.530;2022-12-29T00:07:02;2.50;;;0.70;;
13202;SDS011;6666;51.626;7.530;2022-12-29T00:09:31;1.00;;;0.60;;
13202;SDS011;6666;51.626;7.530;2022-12-29T00:11:59;1.05;;;0.80;;
13202;SDS011;6666;51.626;7.530;2022-12-29T00:14:28;1.33;;;0.90;;
13202;SDS011;6666;51.626;7.530;2022-12-29T00:17:14;0.90;;;0.70;;
13202;SDS011;6666;51.626;7.530;2022-12-29T00:19:45;2.42;;;0.90;;
13202;SDS011;6666;51.626;7.530;2022-12-29T00:22:31;0.95;;;0.85;;
13202;SDS011;6666;51.626;7.530;2022-12-29T00:25:16;1.70;;;0.70;;
13202;SDS011;6666;51.626;7.530;2022-12-29T00:28:01;2.40;;;0.80;;
13202;SDS011;6666;51.626;7.530;2022-12-29T00:30:47;1.33;;;0.80;;
13202;SDS011;6666;51.626;7.530;2022-12-29T00:33:33;1.67;;;0.70;;
13202;SDS011;6666;51.626;7.530;2022-12-29T00:36:21;1.35;;;0.80;;
13202;SDS011;6666;51.626;7.530;2022-12-29T00:38:54;3.60;;;0.80;;
13202;SDS011;6666;51.626;7.530;2022-12-29T00:41:43;1.20;;;0.80;;
13202;SDS011;6666;51.626;7.530;2022-12-29T00:44:29;0.90;;;0.70;;
13202;SDS011;6666;51.626;7.530;2022-12-29T00:46:57;1.50;;;0.80;;
13202;SDS011;6666;51.626;7.530;2022-12-29T00:49:28;0.70;;;0.60;;
13202;SDS011;6666;51.626;7.530;2022-12-29T00:52:03;1.00;;;0.60;;
13202;SDS011;6666;51.626;7.530;2022-12-29T00:54:33;0.80;;;0.50;;
13202;SDS011;6666;51.626;7.530;2022-12-29T00:57:03;0.90;;;0.70;;
13202;SDS011;6666;51.626;7.530;2022-12-29T00:59:34;2.00;;;0.77;;
13202;SDS011;6666;51.626;7.530;2022-12-29T01:02:02;1.10;;;0.60;;
13202;SDS011;6666;51.626;7.530;2022-12-29T01:04:31;2.80;;;0.60;;
13202;SDS011;6666;51.626;7.530;2022-12-29T01:07:01;1.40;;;0.60;;
13202;SDS011;6666;51.626;7.530;2022-12-29T01:09:31;0.70;;;0.50;;
13202;SDS011;6666;51.626;7.530;2022-12-29T01:12:19;0.70;;;0.40;;
13202;SDS011;6666;51.626;7.530;2022-12-29T01:15:09;2.90;;;0.50;;
13202;SDS011;6666;51.626;7.530;2022-12-29T01:17:40;0.90;;;0.60;;
13202;SDS011;6666;51.626;7.530;2022-12-29T01:20:09;0.70;;;0.60;;
13202;SDS011;6666;51.626;7.530;2022-12-29T01:22:40;1.50;;;0.52;;
13202;SDS011;6666;51.626;7.530;2022-12-29T01:25:10;0.70;;;0.60;;
13202;SDS011;6666;51.626;7.530;2022-12-29T01:27:39;0.63;;;0.50;;
13202;SDS011;6666;51.626;7.530;2022-12-29T01:30:08;2.07;;;0.60;;
13202;SDS011;6666;51.626;7.530;2022-12-29T01:32:37;0.80;;;0.50;;
13202;SDS011;6666;51.626;7.530;2022-12-29T01:35:05;1.00;;;0.60;;
13202;SDS011;6666;51.626;7.530;2022-12-29T01:37:34;2.20;;;0.60;;
13202;SDS011;6666;51.626;7.530;2022-12-29T01:40:04;0.80;;;0.50;;
13202;SDS011;6666;51.626;7.530;2022-12-29T01:42:33;1.90;;;0.60;;
13202;SDS011;6666;51.626;7.530;2022-12-29T01:45:01;0.88;;;0.50;;
13202;SDS011;6666;51.626;7.530;2022-12-29T01:47:33;0.70;;;0.50;;
13202;SDS011;6666;51.626;7.530;2022-12-29T01:50:05;0.70;;;0.50;;
13202;SDS011;6666;51.626;7.530;2022-12-29T01:52:37;1.20;;;0.50;;
13202;SDS011;6666;51.626;7.530;2022-12-29T01:55:11;0.70;;;0.50;;
13202;SDS011;6666;51.626;7.530;2022-12-29T01:57:40;0.80;;;0.60;;
13202;SDS011;6666;51.626;7.530;2022-12-29T02:00:13;0.80;;;0.50;;
13202;SDS011;6666;51.626;7.530;2022-12-29T02:02:46;0.70;;;0.50;;
13202;SDS011;6666;51.626;7.530;2022-12-29T02:05:19;1.40;;;0.60;;
13202;SDS011;6666;51.626;7.530;2022-12-29T02:07:52;0.90;;;0.60;;
13202;SDS011;6666;51.626;7.530;2022-12-29T02:10:23;0.70;;;0.50;;
13202;SDS011;6666;51.626;7.530;2022-12-29T02:12:54;1.00;;;0.75;;
13202;SDS011;6666;51.626;7.530;2022-12-29T02:15:24;1.45;;;0.60;;
13202;SDS011;6666;51.626;7.530;2022-12-29T02:18:03;1.10;;;0.70;;
13202;SDS011;6666;51.626;7.530;2022-12-29T02:23:58;0.80;;;0.70;;
13202;SDS011;6666;51.626;7.530;2022-12-29T02:26:56;1.08;;;0.50;;
13202;SDS011;6666;51.626;7.530;2022-12-29T02:32:33;0.82;;;0.60;;
13202;SDS011;6666;51.626;7.530;2022-12-29T02:35:08;1.73;;;0.60;;
13202;SDS011;6666;51.626;7.530;2022-12-29T02:37:45;1.55;;;0.80;;
13202;SDS011;6666;51.626;7.530;2022-12-29T02:40:24;2.80;;;1.08;;
13202;SDS011;6666;51.626;7.530;2022-12-29T02:43:00;1.93;;;0.90;;
13202;SDS011;6666;51.626;7.530;2022-12-29T02:45:35;1.70;;;0.70;;
13202;SDS011;6666;51.626;7.530;2022-12-29T02:48:09;0.80;;;0.57;;
13202;SDS011;6666;51.626;7.530;2022-12-29T02:50:44;1.52;;;0.65;;
13202;SDS011;6666;51.626;7.530;2022-12-29T02:53:21;1.23;;;0.60;;
13202;SDS011;6666;51.626;7.530;2022-12-29T02:56:06;0.80;;;0.60;;
13202;SDS011;6666;51.626;7.530;2022-12-29T02:58:34;0.70;;;0.50;;
13202;SDS011;6666;51.626;7.530;2022-12-29T03:01:06;1.00;;;0.60;;
13202;SDS011;6666;51.626;7.530;2022-12-29T03:03:55;0.70;;;0.45;;
13202;SDS011;6666;51.626;7.530;2022-12-29T03:06:47;0.70;;;0.50;;
13202;SDS011;6666;51.626;7.530;2022-12-29T03:09:26;1.10;;;0.50;;
13202;SDS011;6666;51.626;7.530;2022-12-29T03:12:03;1.10;;;0.57;;
13202;SDS011;6666;51.626;7.530;2022-12-29T03:14:44;0.90;;;0.50;;
13202;SDS011;6666;51.626;7.530;2022-12-29T03:17:39;2.15;;;0.80;;
13202;SDS011;6666;51.626;7.530;2022-12-29T03:20:17;1.40;;;0.60;;
13202;SDS011;6666;51.626;7.530;2022-12-29T03:22:53;1.23;;;0.80;;
13202;SDS011;6666;51.626;7.530;2022-12-29T03:25:30;0.60;;;0.40;;
13202;SDS011;6666;51.626;7.530;2022-12-29T03:28:06;0.70;;;0.60;;
13202;SDS011;6666;51.626;7.530;2022-12-29T03:30:42;1.63;;;0.70;;
13202;SDS011;6666;51.626;7.530;2022-12-29T03:33:15;0.90;;;0.50;;
13202;SDS011;6666;51.626;7.530;2022-12-29T03:35:49;1.90;;;0.60;;
13202;SDS011;6666;51.626;7.530;2022-12-29T03:38:23;2.20;;;0.90;;
13202;SDS011;6666;51.626;7.530;2022-12-29T03:40:57;1.90;;;0.68;;
13202;SDS011;6666;51.626;7.530;2022-12-29T03:43:29;1.08;;;0.63;;
13202;SDS011;6666;51.626;7.530;2022-12-29T03:45:57;0.80;;;0.60;;
13202;SDS011;6666;51.626;7.530;2022-12-29T03:48:26;1.30;;;0.90;;
13202;SDS011;6666;51.626;7.530;2022-12-29T03:50:56;0.82;;;0.60;;
13202;SDS011;6666;51.626;7.530;2022-12-29T03:53:25;2.03;;;0.70;;
13202;SDS011;6666;51.626;7.530;2022-12-29T03:55:53;4.30;;;0.90;;
13202;SDS011;6666;51.626;7.530;2022-12-29T03:58:22;2.00;;;0.73;;
13202;SDS011;6666;51.626;7.530;2022-12-29T04:01:09;1.02;;;0.60;;
13202;SDS011;6666;51.626;7.530;2022-12-29T04:03:38;2.10;;;0.43;;
13202;SDS011;6666;51.626;7.530;2022-12-29T04:06:08;2.27;;;0.60;;
13202;SDS011;6666;51.626;7.530;2022-12-29T04:08:47;1.00;;;0.60;;
13202;SDS011;6666;51.626;7.530;2022-12-29T04:11:16;1.10;;;0.60;;
13202;SDS011;6666;51.626;7.530;2022-12-29T04:13:44;0.90;;;0.60;;
13202;SDS011;6666;51.626;7.530;2022-12-29T04:16:17;2.00;;;0.80;;
13202;SDS011;6666;51.626;7.530;2022-12-29T04:18:46;3.97;;;0.90;;
13202;SDS011;6666;51.626;7.530;2022-12-29T04:21:16;1.00;;;0.70;;
13202;SDS011;6666;51.626;7.530;2022-12-29T04:23:44;0.80;;;0.60;;
13202;SDS011;6666;51.626;7.530;2022-12-29T04:26:15;0.80;;;0.60;;
13202;SDS011;6666;51.626;7.530;2022-12-29T04:28:52;0.80;;;0.50;;
13202;SDS011;6666;51.626;7.530;2022-12-29T04:31:43;0.93;;;0.65;;
13202;SDS011;6666;51.626;7.530;2022-12-29T04:34:12;2.10;;;0.70;;
13202;SDS011;6666;51.626;7.530;2022-12-29T04:36:42;1.67;;;0.60;;
13202;SDS011;6666;51.626;7.530;2022-12-29T04:39:11;0.80;;;0.50;;
13202;SDS011;6666;51.626;7.530;2022-12-29T04:41:41;0.70;;;0.60;;
13202;SDS011;6666;51.626;7.530;2022-12-29T04:44:14;1.50;;;0.75;;
13202;SDS011;6666;51.626;7.530;2022-12-29T04:47:12;0.85;;;0.60;;
13202;SDS011;6666;51.626;7.530;2022-12-29T04:50:06;1.80;;;0.60;;
13202;SDS011;6666;51.626;7.530;2022-12-29T04:52:54;1.00;;;0.60;;
13202;SDS011;6666;51.626;7.530;2022-12-29T04:55:22;1.85;;;0.50;;
13202;SDS011;6666;51.626;7.530;2022-12-29T04:57:50;1.48;;;0.50;;
13202;SDS011;6666;51.626;7.530;2022-12-29T05:00:19;0.80;;;0.60;;
13202;SDS011;6666;51.626;7.530;2022-12-29T05:02:47;1.00;;;0.60;;
13202;SDS011;6666;51.626;7.530;2022-12-29T05:05:16;1.10;;;0.60;;
13202;SDS011;6666;51.626;7.530;2022-12-29T05:07:48;0.82;;;0.57;;
13202;SDS011;6666;51.626;7.530;2022-12-29T05:10:18;1.00;;;0.60;;
13202;SDS011;6666;51.626;7.530;2022-12-29T05:12:50;1.80;;;0.55;;
13202;SDS011;6666;51.626;7.530;2022-12-29T05:15:19;1.20;;;0.60;;
13202;SDS011;6666;51.626;7.530;2022-12-29T05:17:47;3.20;;;1.00;;
13202;SDS011;6666;51.626;7.530;2022-12-29T05:20:16;3.67;;;1.10;;
13202;SDS011;6666;51.626;7.530;2022-12-29T05:22:45;2.30;;;1.10;;
13202;SDS011;6666;51.626;7.530;2022-12-29T05:25:13;1.67;;;1.00;;
13202;SDS011;6666;51.626;7.530;2022-12-29T05:28:05;1.60;;;0.80;;
13202;SDS011;6666;51.626;7.530;2022-12-29T05:30:47;1.30;;;0.50;;
13202;SDS011;6666;51.626;7.530;2022-12-29T05:33:17;2.97;;;0.60;;
13202;SDS011;6666;51.626;7.530;2022-12-29T05:35:48;1.00;;;0.80;;
13202;SDS011;6666;51.626;7.530;2022-12-29T05:38:17;2.35;;;0.70;;
13202;SDS011;6666;51.626;7.530;2022-12-29T05:40:46;2.50;;;0.60;;
13202;SDS011;6666;51.626;7.530;2022-12-29T05:43:46;1.55;;;0.80;;
13202;SDS011;6666;51.626;7.530;2022-12-29T05:46:28;1.15;;;0.70;;
13202;SDS011;6666;51.626;7.530;2022-12-29T05:49:23;1.50;;;0.70;;
13202;SDS011;6666;51.626;7.530;2022-12-29T05:51:56;0.90;;;0.50;;
13202;SDS011;6666;51.626;7.530;2022-12-29T05:54:24;1.17;;;0.63;;
13202;SDS011;6666;51.626;7.530;2022-12-29T05:56:53;1.10;;;0.60;;
13202;SDS011;6666;51.626;7.530;2022-12-29T05:59:23;1.75;;;0.60;;
13202;SDS011;6666;51.626;7.530;2022-12-29T06:01:52;1.30;;;0.55;;
13202;SDS011;6666;51.626;7.530;2022-12-29T06:04:21;2.17;;;0.60;;
13202;SDS011;6666;51.626;7.530;2022-12-29T06:06:49;1.30;;;0.70;;
13202;SDS011;6666;51.626;7.530;2022-12-29T06:09:23;0.80;;;0.57;;
13202;SDS011;6666;51.626;7.530;2022-12-29T06:11:53;0.90;;;0.60;;
13202;SDS011;6666;51.626;7.530;2022-12-29T06:14:23;1.08;;;0.50;;
13202;SDS011;6666;51.626;7.530;2022-12-29T06:16:51;1.58;;;0.50;;
13202;SDS011;6666;51.626;7.530;2022-12-29T06:19:20;1.50;;;0.60;;
13202;SDS011;6666;51.626;7.530;2022-12-29T06:21:48;2.45;;;0.55;;
13202;SDS011;6666;51.626;7.530;2022-12-29T06:24:18;1.30;;;0.50;;
13202;SDS011;6666;51.626;7.530;2022-12-29T06:26:46;2.40;;;0.60;;
13202;SDS011;6666;51.626;7.530;2022-12-29T06:29:15;1.00;;;0.60;;
13202;SDS011;6666;51.626;7.530;2022-12-29T06:31:46;1.20;;;0.70;;
13202;SDS011;6666;51.626;7.530;2022-12-29T06:34:15;1.40;;;0.50;;
13202;SDS011;6666;51.626;7.530;2022-12-29T06:36:44;1.00;;;0.57;;
13202;SDS011;6666;51.626;7.530;2022-12-29T06:39:13;1.77;;;0.80;;
13202;SDS011;6666;51.626;7.530;2022-12-29T06:41:51;0.77;;;0.60;;
13202;SDS011;6666;51.626;7.530;2022-12-29T06:44:43;1.58;;;0.70;;
13202;SDS011;6666;51.626;7.530;2022-12-29T06:47:12;2.38;;;0.70;;
13202;SDS011;6666;51.626;7.530;2022-12-29T06:49:41;1.40;;;0.80;;
13202;SDS011;6666;51.626;7.530;2022-12-29T06:52:09;1.90;;;0.73;;
13202;SDS011;6666;51.626;7.530;2022-12-29T06:54:38;1.53;;;0.93;;
13202;SDS011;6666;51.626;7.530;2022-12-29T06:57:07;1.15;;;0.80;;
13202;SDS011;6666;51.626;7.530;2022-12-29T06:59:35;1.10;;;0.80;;
13202;SDS011;6666;51.626;7.530;2022-12-29T07:02:03;2.80;;;0.70;;
13202;SDS011;6666;51.626;7.530;2022-12-29T07:04:34;2.80;;;1.23;;
13202;SDS011;6666;51.626;7.530;2022-12-29T07:07:02;1.00;;;0.60;;
13202;SDS011;6666;51.626;7.530;2022-12-29T07:09:30;2.57;;;1.03;;
13202;SDS011;6666;51.626;7.530;2022-12-29T07:11:59;0.80;;;0.70;;
13202;SDS011;6666;51.626;7.530;2022-12-29T07:14:27;1.30;;;0.73;;
13202;SDS011;6666;51.626;7.530;2022-12-29T07:16:55;4.07;;;1.20;;
13202;SDS011;6666;51.626;7.530;2022-12-29T07:19:24;1.60;;;0.80;;
13202;SDS011;6666;51.626;7.530;2022-12-29T07:21:55;1.85;;;0.70;;
13202;SDS011;6666;51.626;7.530;2022-12-29T07:24:23;3.40;;;1.10;;
13202;SDS011;6666;51.626;7.530;2022-12-29T07:26:52;3.10;;;0.70;;
13202;SDS011;6666;51.626;7.530;2022-12-29T07:29:20;2.10;;;0.70;;
13202;SDS011;6666;51.626;7.530;2022-12-29T07:31:48;5.25;;;0.90;;
13202;SDS011;6666;51.626;7.530;2022-12-29T07:34:16;4.55;;;0.80;;
13202;SDS011;6666;51.626;7.530;2022-12-29T07:36:45;2.50;;;0.80;;
13202;SDS011;6666;51.626;7.530;2022-12-29T07:39:14;1.60;;;0.70;;
13202;SDS011;6666;51.626;7.530;2022-12-29T07:41:43;1.20;;;0.80;;
13202;SDS011;6666;51.626;7.530;2022-12-29T07:44:16;3.08;;;0.70;;
13202;SDS011;6666;51.626;7.530;2022-12-29T07:47:07;3.33;;;1.10;;
13202;SDS011;6666;51.626;7.530;2022-12-29T07:49:35;1.77;;;0.80;;
13202;SDS011;6666;51.626;7.530;2022-12-29T07:52:03;2.40;;;0.80;;
13202;SDS011;6666;51.626;7.530;2022-12-29T07:54:33;1.83;;;0.80;;
13202;SDS011;6666;51.626;7.530;2022-12-29T07:57:01;1.60;;;0.80;;
13202;SDS011;6666;51.626;7.530;2022-12-29T07:59:30;1.73;;;0.70;;
13202;SDS011;6666;51.626;7.530;2022-12-29T08:01:58;1.80;;;0.70;;
13202;SDS011;6666;51.626;7.530;2022-12-29T08:04:26;10.07;;;6.50;;
13202;SDS011;6666;51.626;7.530;2022-12-29T08:06:54;3.15;;;1.00;;
13202;SDS011;6666;51.626;7.530;2022-12-29T08:09:23;3.58;;;0.60;;
13202;SDS011;6666;51.626;7.530;2022-12-29T08:11:53;1.38;;;0.85;;
13202;SDS011;6666;51.626;7.530;2022-12-29T08:14:21;1.08;;;0.60;;
13202;SDS011;6666;51.626;7.530;2022-12-29T08:16:50;2.45;;;0.70;;
13202;SDS011;6666;51.626;7.530;2022-12-29T08:19:18;3.78;;;0.90;;
13202;SDS011;6666;51.626;7.530;2022-12-29T08:21:46;0.90;;;0.60;;
13202;SDS011;6666;51.626;7.530;2022-12-29T08:24:17;2.70;;;0.93;;
13202;SDS011;6666;51.626;7.530;2022-12-29T08:26:45;2.78;;;0.77;;
13202;SDS011;6666;51.626;7.530;2022-12-29T08:29:14;2.42;;;0.60;;
13202;SDS011;6666;51.626;7.530;2022-12-29T08:31:43;2.60;;;0.70;;
13202;SDS011;6666;51.626;7.530;2022-12-29T08:34:11;3.93;;;0.80;;
13202;SDS011;6666;51.626;7.530;2022-12-29T08:36:40;4.30;;;0.80;;
13202;SDS011;6666;51.626;7.530;2022-12-29T08:39:08;2.70;;;1.30;;
13202;SDS011;6666;51.626;7.530;2022-12-29T08:41:37;1.00;;;0.60;;
13202;SDS011;6666;51.626;7.530;2022-12-29T08:44:05;4.13;;;0.95;;
13202;SDS011;6666;51.626;7.530;2022-12-29T08:46:35;2.80;;;0.70;;
13202;SDS011;6666;51.626;7.530;2022-12-29T08:49:03;3.63;;;0.80;;
13202;SDS011;6666;51.626;7.530;2022-12-29T08:51:32;1.92;;;0.90;;
13202;SDS011;6666;51.626;7.530;2022-12-29T08:54:00;2.20;;;1.00;;
13202;SDS011;6666;51.626;7.530;2022-12-29T08:56:28;3.20;;;0.70;;
13202;SDS011;6666;51.626;7.530;2022-12-29T08:58:58;3.47;;;1.00;;
13202;SDS011;6666;51.626;7.530;2022-12-29T09:01:29;4.32;;;0.88;;
13202;SDS011;6666;51.626;7.530;2022-12-29T09:03:59;4.70;;;1.10;;
13202;SDS011;6666;51.626;7.530;2022-12-29T09:06:44;4.00;;;0.80;;
13202;SDS011;6666;51.626;7.530;2022-12-29T09:09:12;2.00;;;1.00;;
13202;SDS011;6666;51.626;7.530;2022-12-29T09:11:41;3.80;;;0.90;;
13202;SDS011;6666;51.626;7.530;2022-12-29T09:14:09;4.28;;;0.75;;
13202;SDS011;6666;51.626;7.530;2022-12-29T09:16:38;3.13;;;1.00;;
13202;SDS011;6666;51.626;7.530;2022-12-29T09:19:26;3.30;;;0.82;;
13202;SDS011;6666;51.626;7.530;2022-12-29T09:21:54;2.85;;;0.98;;
13202;SDS011;6666;51.626;7.530;2022-12-29T09:24:23;2.97;;;0.70;;
13202;SDS011;6666;51.626;7.530;2022-12-29T09:26:51;6.63;;;1.37;;
13202;SDS011;6666;51.626;7.530;2022-12-29T09:29:20;3.87;;;1.00;;
13202;SDS011;6666;51.626;7.530;2022-12-29T09:31:48;3.27;;;0.87;;
13202;SDS011;6666;51.626;7.530;2022-12-29T09:34:16;3.08;;;0.80;;
13202;SDS011;6666;51.626;7.530;2022-12-29T09:36:46;2.50;;;0.90;;
13202;SDS011;6666;51.626;7.530;2022-12-29T09:39:14;3.38;;;1.00;;
13202;SDS011;6666;51.626;7.530;2022-12-29T09:41:43;4.20;;;1.30;;
13202;SDS011;6666;51.626;7.530;2022-12-29T09:44:20;4.72;;;1.10;;
13202;SDS011;6666;51.626;7.530;2022-12-29T09:46:54;5.97;;;1.38;;
13202;SDS011;6666;51.626;7.530;2022-12-29T09:49:25;3.97;;;1.30;;
13202;SDS011;6666;51.626;7.530;2022-12-29T09:52:02;1.35;;;0.85;;
13202;SDS011;6666;51.626;7.530;2022-12-29T09:54:38;3.13;;;0.90;;
13202;SDS011;6666;51.626;7.530;2022-12-29T09:57:21;1.17;;;0.80;;
13202;SDS011;6666;51.626;7.530;2022-12-29T09:59:54;4.93;;;1.40;;
13202;SDS011;6666;51.626;7.530;2022-12-29T10:02:29;4.90;;;0.80;;
13202;SDS011;6666;51.626;7.530;2022-12-29T10:05:04;5.10;;;0.90;;
13202;SDS011;6666;51.626;7.530;2022-12-29T10:07:43;3.80;;;1.10;;
13202;SDS011;6666;51.626;7.530;2022-12-29T10:10:19;5.07;;;1.30;;
13202;SDS011;6666;51.626;7.530;2022-12-29T10:13:01;3.53;;;1.10;;
13202;SDS011;6666;51.626;7.530;2022-12-29T10:15:40;3.47;;;1.40;;
13202;SDS011;6666;51.626;7.530;2022-12-29T10:18:31;3.97;;;0.98;;
13202;SDS011;6666;51.626;7.530;2022-12-29T10:21:08;6.70;;;0.82;;
13202;SDS011;6666;51.626;7.530;2022-12-29T10:23:47;4.75;;;0.90;;
13202;SDS011;6666;51.626;7.530;2022-12-29T10:26:19;4.80;;;1.27;;
13202;SDS011;6666;51.626;7.530;2022-12-29T10:28:50;4.82;;;1.00;;
13202;SDS011;6666;51.626;7.530;2022-12-29T10:31:24;2.15;;;0.88;;
13202;SDS011;6666;51.626;7.530;2022-12-29T10:33:56;2.28;;;0.85;;
13202;SDS011;6666;51.626;7.530;2022-12-29T10:36:29;4.00;;;0.80;;
13202;SDS011;6666;51.626;7.530;2022-12-29T10:39:06;3.00;;;0.80;;
13202;SDS011;6666;51.626;7.530;2022-12-29T10:41:44;3.20;;;1.00;;
13202;SDS011;6666;51.626;7.530;2022-12-29T10:44:17;3.60;;;1.30;;
13202;SDS011;6666;51.626;7.530;2022-12-29T10:46:50;6.80;;;1.10;;
13202;SDS011;6666;51.626;7.530;2022-12-29T10:49:23;7.35;;;1.40;;
13202;SDS011;6666;51.626;7.530;2022-12-29T10:51:54;3.00;;;0.90;;
13202;SDS011;6666;51.626;7.530;2022-12-29T10:54:27;4.95;;;0.82;;
13202;SDS011;6666;51.626;7.530;2022-12-29T10:57:01;3.92;;;1.10;;
13202;SDS011;6666;51.626;7.530;2022-12-29T10:59:33;2.67;;;1.00;;
13202;SDS011;6666;51.626;7.530;2022-12-29T11:02:11;3.85;;;1.00;;
13202;SDS011;6666;51.626;7.530;2022-12-29T11:04:52;3.40;;;0.93;;
13202;SDS011;6666;51.626;7.530;2022-12-29T11:07:28;4.25;;;0.90;;
13202;SDS011;6666;51.626;7.530;2022-12-29T11:12:55;4.30;;;1.10;;
13202;SDS011;6666;51.626;7.530;2022-12-29T11:15:25;4.10;;;0.90;;
13202;SDS011;6666;51.626;7.530;2022-12-29T11:17:56;6.82;;;0.90;;
13202;SDS011;6666;51.626;7.530;2022-12-29T11:20:27;2.90;;;0.90;;
13202;SDS011;6666;51.626;7.530;2022-12-29T11:22:58;4.53;;;1.10;;
13202;SDS011;6666;51.626;7.530;2022-12-29T11:25:28;4.55;;;0.95;;
13202;SDS011;6666;51.626;7.530;2022-12-29T11:27:58;6.60;;;0.90;;
13202;SDS011;6666;51.626;7.530;2022-12-29T11:30:29;5.40;;;1.40;;
13202;SDS011;6666;51.626;7.530;2022-12-29T11:32:58;4.85;;;1.00;;
13202;SDS011;6666;51.626;7.530;2022-12-29T11:35:31;3.40;;;0.82;;
13202;SDS011;6666;51.626;7.530;2022-12-29T11:38:05;6.10;;;1.15;;
13202;SDS011;6666;51.626;7.530;2022-12-29T11:40:47;3.50;;;1.00;;
13202;SDS011;6666;51.626;7.530;2022-12-29T11:43:18;3.90;;;1.00;;
13202;SDS011;6666;51.626;7.530;2022-12-29T11:45:53;2.47;;;0.70;;
13202;SDS011;6666;51.626;7.530;2022-12-29T11:48:23;2.60;;;0.80;;
13202;SDS011;6666;51.626;7.530;2022-12-29T11:50:57;2.70;;;0.87;;
13202;SDS011;6666;51.626;7.530;2022-12-29T11:53:27;3.70;;;1.00;;
13202;SDS011;6666;51.626;7.530;2022-12-29T11:56:03;2.53;;;0.73;;
13202;SDS011;6666;51.626;7.530;2022-12-29T11:58:36;3.25;;;1.02;;
13202;SDS011;6666;51.626;7.530;2022-12-29T12:01:06;4.80;;;0.97;;
13202;SDS011;6666;51.626;7.530;2022-12-29T12:03:42;2.83;;;1.00;;
13202;SDS011;6666;51.626;7.530;2022-12-29T12:06:15;5.80;;;1.30;;
13202;SDS011;6666;51.626;7.530;2022-12-29T12:08:48;3.88;;;1.42;;
13202;SDS011;6666;51.626;7.530;2022-12-29T12:11:24;5.07;;;1.50;;
13202;SDS011;6666;51.626;7.530;2022-12-29T12:14:00;2.80;;;0.90;;
13202;SDS011;6666;51.626;7.530;2022-12-29T12:16:55;7.82;;;1.30;;
13202;SDS011;6666;51.626;7.530;2022-12-29T12:19:30;3.13;;;1.27;;
13202;SDS011;6666;51.626;7.530;2022-12-29T12:22:03;7.35;;;1.08;;
13202;SDS011;6666;51.626;7.530;2022-12-29T12:24:39;2.47;;;1.00;;
13202;SDS011;6666;51.626;7.530;2022-12-29T12:27:15;5.90;;;1.00;;
13202;SDS011;6666;51.626;7.530;2022-12-29T12:29:50;5.70;;;1.40;;
13202;SDS011;6666;51.626;7.530;2022-12-29T12:32:25;5.32;;;1.20;;
13202;SDS011;6666;51.626;7.530;2022-12-29T12:35:04;4.00;;;1.10;;
13202;SDS011;6666;51.626;7.530;2022-12-29T12:40:34;5.53;;;1.08;;
13202;SDS011;6666;51.626;7.530;2022-12-29T12:43:32;6.30;;;1.27;;
13202;SDS011;6666;51.626;7.530;2022-12-29T12:46:19;6.32;;;1.20;;
13202;SDS011;6666;51.626;7.530;2022-12-29T12:49:20;5.27;;;1.20;;
13202;SDS011;6666;51.626;7.530;2022-12-29T12:52:04;4.35;;;0.90;;
13202;SDS011;6666;51.626;7.530;2022-12-29T12:54:41;2.80;;;1.15;;
13202;SDS011;6666;51.626;7.530;2022-12-29T12:57:40;5.50;;;1.80;;
13202;SDS011;6666;51.626;7.530;2022-12-29T13:00:18;5.00;;;1.10;;
13202;SDS011;6666;51.626;7.530;2022-12-29T13:02:57;2.70;;;1.25;;
13202;SDS011;6666;51.626;7.530;2022-12-29T13:05:38;3.87;;;1.13;;
13202;SDS011;6666;51.626;7.530;2022-12-29T13:08:22;3.20;;;0.80;;
13202;SDS011;6666;51.626;7.530;2022-12-29T13:11:00;6.50;;;1.00;;
13202;SDS011;6666;51.626;7.530;2022-12-29T13:13:43;4.47;;;1.30;;
13202;SDS011;6666;51.626;7.530;2022-12-29T13:16:31;4.20;;;1.10;;
13202;SDS011;6666;51.626;7.530;2022-12-29T13:19:04;8.07;;;1.80;;
13202;SDS011;6666;51.626;7.530;2022-12-29T13:21:43;4.88;;;1.23;;
13202;SDS011;6666;51.626;7.530;2022-12-29T13:24:28;5.32;;;1.23;;
13202;SDS011;6666;51.626;7.530;2022-12-29T13:27:04;4.97;;;1.50;;
13202;SDS011;6666;51.626;7.530;2022-12-29T13:29:42;4.40;;;1.13;;
13202;SDS011;6666;51.626;7.530;2022-12-29T13:32:18;6.13;;;1.30;;
13202;SDS011;6666;51.626;7.530;2022-12-29T13:34:56;5.70;;;1.10;;
13202;SDS011;6666;51.626;7.530;2022-12-29T13:37:44;4.13;;;1.10;;
13202;SDS011;6666;51.626;7.530;2022-12-29T13:40:18;4.88;;;1.23;;
13202;SDS011;6666;51.626;7.530;2022-12-29T13:42:51;2.80;;;0.90;;
13202;SDS011;6666;51.626;7.530;2022-12-29T13:45:22;6.15;;;1.20;;
13202;SDS011;6666;51.626;7.530;2022-12-29T13:47:56;4.00;;;1.10;;
13202;SDS011;6666;51.626;7.530;2022-12-29T13:50:33;4.95;;;1.13;;
13202;SDS011;6666;51.626;7.530;2022-12-29T13:53:06;2.72;;;1.17;;
13202;SDS011;6666;51.626;7.530;2022-12-29T13:55:45;3.70;;;1.10;;
13202;SDS011;6666;51.626;7.530;2022-12-29T13:58:20;2.45;;;1.30;;
13202;SDS011;6666;51.626;7.530;2022-12-29T14:00:57;6.93;;;1.42;;
13202;SDS011;6666;51.626;7.530;2022-12-29T14:03:46;4.20;;;1.30;;
13202;SDS011;6666;51.626;7.530;2022-12-29T14:06:19;7.40;;;2.13;;
13202;SDS011;6666;51.626;7.530;2022-12-29T14:08:51;7.30;;;1.98;;
13202;SDS011;6666;51.626;7.530;2022-12-29T14:11:23;4.57;;;1.48;;
13202;SDS011;6666;51.626;7.530;2022-12-29T14:13:57;9.00;;;1.42;;
13202;SDS011;6666;51.626;7.530;2022-12-29T14:16:29;4.30;;;1.20;;
13202;SDS011;6666;51.626;7.530;2022-12-29T14:19:09;5.20;;;1.27;;
13202;SDS011;6666;51.626;7.530;2022-12-29T14:21:49;5.30;;;0.80;;
13202;SDS011;6666;51.626;7.530;2022-12-29T14:33:14;5.38;;;1.40;;
13202;SDS011;6666;51.626;7.530;2022-12-29T14:35:45;5.28;;;0.90;;
13202;SDS011;6666;51.626;7.530;2022-12-29T14:38:23;2.10;;;0.80;;
13202;SDS011;6666;51.626;7.530;2022-12-29T14:43:57;4.70;;;0.80;;
13202;SDS011;6666;51.626;7.530;2022-12-29T14:49:17;6.20;;;1.15;;
13202;SDS011;6666;51.626;7.530;2022-12-29T14:51:51;2.60;;;1.20;;
13202;SDS011;6666;51.626;7.530;2022-12-29T14:54:42;4.68;;;1.27;;
13202;SDS011;6666;51.626;7.530;2022-12-29T14:57:27;5.07;;;1.20;;
13202;SDS011;6666;51.626;7.530;2022-12-29T15:00:15;7.45;;;1.13;;
13202;SDS011;6666;51.626;7.530;2022-12-29T15:02:47;5.18;;;1.50;;
13202;SDS011;6666;51.626;7.530;2022-12-29T15:05:31;5.03;;;1.50;;
13202;SDS011;6666;51.626;7.530;2022-12-29T15:08:05;6.23;;;1.13;;
13202;SDS011;6666;51.626;7.530;2022-12-29T15:10:37;8.10;;;1.20;;
13202;SDS011;6666;51.626;7.530;2022-12-29T15:13:13;6.33;;;1.30;;
13202;SDS011;6666;51.626;7.530;2022-12-29T15:15:44;4.68;;;1.17;;
13202;SDS011;6666;51.626;7.530;2022-12-29T15:18:23;9.02;;;1.20;;
13202;SDS011;6666;51.626;7.530;2022-12-29T15:20:53;4.35;;;1.30;;
13202;SDS011;6666;51.626;7.530;2022-12-29T15:23:25;4.77;;;1.20;;
13202;SDS011;6666;51.626;7.530;2022-12-29T15:25:54;2.67;;;1.00;;
13202;SDS011;6666;51.626;7.530;2022-12-29T15:28:26;3.80;;;1.00;;
13202;SDS011;6666;51.626;7.530;2022-12-29T15:30:56;6.05;;;1.10;;
13202;SDS011;6666;51.626;7.530;2022-12-29T15:33:29;5.70;;;1.10;;
13202;SDS011;6666;51.626;7.530;2022-12-29T15:36:02;4.25;;;0.93;;
13202;SDS011;6666;51.626;7.530;2022-12-29T15:38:38;3.80;;;0.80;;
13202;SDS011;6666;51.626;7.530;2022-12-29T15:41:13;4.78;;;1.10;;
13202;SDS011;6666;51.626;7.530;2022-12-29T15:43:56;2.30;;;0.70;;
13202;SDS011;6666;51.626;7.530;2022-12-29T15:46:36;3.42;;;1.00;;
13202;SDS011;6666;51.626;7.530;2022-12-29T15:49:05;3.72;;;0.80;;
13202;SDS011;6666;51.626;7.530;2022-12-29T15:51:36;3.80;;;1.13;;
13202;SDS011;6666;51.626;7.530;2022-12-29T15:54:12;6.50;;;1.10;;
13202;SDS011;6666;51.626;7.530;2022-12-29T15:56:45;5.18;;;1.00;;
13202;SDS011;6666;51.626;7.530;2022-12-29T15:59:22;4.53;;;1.05;;
13202;SDS011;6666;51.626;7.530;2022-12-29T16:01:52;2.97;;;0.90;;
13202;SDS011;6666;51.626;7.530;2022-12-29T16:04:22;7.00;;;1.00;;
13202;SDS011;6666;51.626;7.530;2022-12-29T16:06:55;5.10;;;1.00;;
13202;SDS011;6666;51.626;7.530;2022-12-29T16:09:30;3.93;;;1.00;;